Time;durP1;ratioP1;P1;durP2;ratioP2;P2;SDS_P1;SDS_P2;PMS_P1;PMS_P2;Temp;Humidity;BMP_temperature;BMP_pressure;BME280_temperature;BME280_humidity;BME280_pressure;Samples;Min_cycle;Max_cycle;Signal;HPM_P1;HPM_P2
2022/11/25 00:01:15;;;;;;;22.77;18.80;;;2.60;99.90;;;;;;5044340;28;20758;-84
2022/11/25 00:03:43;;;;;;;26.80;19.20;;;2.70;99.90;;;;;;5050634;28;20632;-84
2022/11/25 00:06:12;;;;;;;21.07;14.10;;;2.50;99.90;;;;;;5041531;28;21023;-84
2022/11/25 00:08:42;;;;;;;16.77;11.70;;;2.70;99.90;;;;;;5036623;28;20627;-84
2022/11/25 00:11:10;;;;;;;16.50;11.13;;;2.60;99.90;;;;;;5043459;28;20703;-85
2022/11/25 00:13:38;;;;;;;21.67;10.87;;;2.40;99.90;;;;;;5041399;28;20640;-84
2022/11/25 00:16:06;;;;;;;15.60;9.83;;;2.60;99.90;;;;;;5046233;28;20647;-84
2022/11/25 00:18:33;;;;;;;17.50;12.40;;;2.70;99.90;;;;;;5045495;28;20878;-85
2022/11/25 00:21:06;;;;;;;17.70;12.03;;;2.70;99.90;;;;;;5046880;28;21064;-85
2022/11/25 00:23:33;;;;;;;13.00;10.90;;;2.70;99.90;;;;;;5041700;28;20664;-85
2022/11/25 00:26:07;;;;;;;16.53;12.23;;;2.60;99.90;;;;;;5050168;28;20624;-85
2022/11/25 00:28:34;;;;;;;16.63;10.87;;;2.50;99.90;;;;;;5050091;28;20627;-85
2022/11/25 00:31:05;;;;;;;20.07;12.87;;;2.50;99.90;;;;;;5036606;28;20675;-85
2022/11/25 00:33:32;;;;;;;17.33;12.57;;;2.40;99.90;;;;;;5036403;28;20635;-85
2022/11/25 00:36:01;;;;;;;16.03;11.20;;;2.50;99.90;;;;;;5041455;28;20725;-84
2022/11/25 00:38:27;;;;;;;22.33;11.40;;;2.30;99.90;;;;;;5037793;28;20635;-84
2022/11/25 00:44:34;;;;;;;16.17;12.20;;;2.20;99.90;;;;;;5049759;28;20689;-85
2022/11/25 00:46:28;;;;;;;17.17;12.70;;;2.50;99.90;;;;;;5047524;28;20624;-84
2022/11/25 00:48:54;;;;;;;13.53;12.10;;;2.60;99.90;;;;;;5042799;28;20641;-84
2022/11/25 00:51:21;;;;;;;19.40;11.83;;;2.40;99.90;;;;;;5041114;28;21261;-84
2022/11/25 00:53:48;;;;;;;12.67;11.23;;;2.50;99.90;;;;;;5049200;28;20650;-84
2022/11/25 00:56:15;;;;;;;15.23;12.20;;;2.40;99.90;;;;;;5036155;28;20624;-84
2022/11/25 00:58:44;;;;;;;18.30;10.60;;;2.40;99.90;;;;;;5048977;28;20639;-84
2022/11/25 01:01:12;;;;;;;12.40;10.83;;;2.30;99.90;;;;;;5047837;28;20643;-84
2022/11/25 01:03:39;;;;;;;14.33;11.73;;;2.50;99.90;;;;;;5042699;28;20622;-84
2022/11/25 01:06:09;;;;;;;16.97;11.80;;;2.50;99.90;;;;;;5037166;28;20631;-84
2022/11/25 01:08:37;;;;;;;14.80;12.00;;;2.60;99.90;;;;;;5043683;28;20629;-84
2022/11/25 01:11:06;;;;;;;13.13;11.07;;;2.70;99.90;;;;;;5043263;28;20699;-84
2022/11/25 01:13:33;;;;;;;15.30;12.70;;;2.60;99.90;;;;;;5046525;28;20668;-84
2022/11/25 01:16:02;;;;;;;17.20;13.97;;;2.40;99.90;;;;;;5048302;28;21159;-84
2022/11/25 01:18:30;;;;;;;15.77;12.70;;;2.70;99.90;;;;;;5049140;28;21316;-84
2022/11/25 01:21:05;;;;;;;18.40;14.40;;;2.70;99.90;;;;;;5051328;28;20655;-85
2022/11/25 01:23:32;;;;;;;14.20;12.10;;;2.80;99.90;;;;;;5042920;28;21237;-84
2022/11/25 01:26:01;;;;;;;13.40;11.20;;;2.80;99.90;;;;;;5037690;28;20639;-84
2022/11/25 01:28:28;;;;;;;13.80;12.27;;;2.70;99.90;;;;;;5048030;28;20646;-84
2022/11/25 01:31:00;;;;;;;18.27;12.30;;;2.90;99.90;;;;;;5043189;28;20679;-84
2022/11/25 01:33:28;;;;;;;19.80;13.70;;;2.60;99.90;;;;;;5049352;28;20638;-84
2022/11/25 01:35:55;;;;;;;12.10;10.90;;;3.00;99.90;;;;;;5041247;28;20629;-84
2022/11/25 01:38:22;;;;;;;16.43;12.33;;;3.10;99.90;;;;;;5049268;28;21293;-84
2022/11/25 01:40:48;;;;;;;21.77;12.87;;;2.90;99.90;;;;;;5040705;28;20657;-84
2022/11/25 01:43:15;;;;;;;19.40;13.67;;;2.80;99.90;;;;;;5041395;28;20625;-84
2022/11/25 01:45:42;;;;;;;14.23;12.73;;;2.60;99.90;;;;;;5041362;28;20641;-84
2022/11/25 01:48:15;;;;;;;15.80;13.80;;;2.70;99.90;;;;;;5033580;28;20637;-84
2022/11/25 01:50:45;;;;;;;12.87;11.37;;;2.70;99.90;;;;;;5047467;28;20697;-84
2022/11/25 01:53:14;;;;;;;16.80;11.90;;;2.70;99.90;;;;;;5044294;28;20639;-84
2022/11/25 01:55:44;;;;;;;14.57;13.07;;;2.80;99.90;;;;;;5042280;28;20629;-84
2022/11/25 01:58:16;;;;;;;15.70;12.40;;;2.80;99.90;;;;;;5044485;28;20630;-84
2022/11/25 02:00:49;;;;;;;15.57;12.17;;;2.80;99.90;;;;;;5044942;28;20649;-84
2022/11/25 02:03:20;;;;;;;15.70;12.50;;;2.90;99.90;;;;;;5049735;28;20632;-84
2022/11/25 02:05:56;;;;;;;17.77;13.57;;;2.90;99.90;;;;;;5046136;28;21279;-84
2022/11/25 02:08:24;;;;;;;15.27;12.67;;;3.00;99.90;;;;;;5039019;28;20732;-84
2022/11/25 02:10:54;;;;;;;18.77;12.90;;;2.80;99.90;;;;;;5043981;28;20678;-84
2022/11/25 02:13:21;;;;;;;15.27;11.47;;;3.10;99.90;;;;;;5041107;28;20653;-85
2022/11/25 02:15:47;;;;;;;13.33;11.90;;;3.00;99.90;;;;;;5038403;28;20646;-84
2022/11/25 02:18:14;;;;;;;15.23;11.57;;;2.60;99.90;;;;;;5040652;28;21149;-85
2022/11/25 02:20:42;;;;;;;15.93;11.43;;;3.00;99.90;;;;;;5040453;28;20653;-85
2022/11/25 02:23:18;;;;;;;15.47;12.30;;;3.10;99.90;;;;;;5042274;28;20641;-85
2022/11/25 02:25:47;;;;;;;16.73;11.87;;;3.20;99.90;;;;;;5046119;28;21098;-84
2022/11/25 02:28:15;;;;;;;16.60;12.00;;;3.10;99.90;;;;;;5046833;28;20621;-84
2022/11/25 02:30:43;;;;;;;18.73;12.37;;;2.80;99.90;;;;;;5040760;28;20682;-84
2022/11/25 02:33:10;;;;;;;14.90;11.50;;;2.90;99.90;;;;;;5036458;28;20624;-84
2022/11/25 02:35:39;;;;;;;21.83;14.23;;;2.90;99.90;;;;;;5040829;28;21199;-85
2022/11/25 02:38:09;;;;;;;14.53;12.50;;;2.90;99.90;;;;;;5039684;28;20644;-85
2022/11/25 02:40:41;;;;;;;17.60;12.27;;;2.80;99.90;;;;;;5048158;28;20659;-85
2022/11/25 02:43:09;;;;;;;14.93;11.80;;;2.70;99.90;;;;;;5040271;28;20633;-85
2022/11/25 02:45:49;;;;;;;15.47;11.63;;;2.90;99.90;;;;;;5045959;28;20633;-85
2022/11/25 02:48:16;;;;;;;16.17;11.17;;;2.80;99.90;;;;;;5038247;28;20631;-85
2022/11/25 02:50:43;;;;;;;14.37;11.20;;;2.70;99.90;;;;;;5037857;28;20674;-85
2022/11/25 02:53:10;;;;;;;16.70;12.20;;;2.60;99.90;;;;;;5046203;28;20966;-85
2022/11/25 02:55:37;;;;;;;18.90;13.67;;;2.50;99.90;;;;;;5033808;28;20633;-85
2022/11/25 02:58:04;;;;;;;16.47;12.40;;;2.70;99.90;;;;;;5046073;28;20628;-85
2022/11/25 03:00:32;;;;;;;19.93;12.03;;;2.60;99.90;;;;;;5040056;28;20662;-84
2022/11/25 03:02:59;;;;;;;15.43;13.00;;;2.60;99.90;;;;;;5035043;28;20635;-85
2022/11/25 03:05:26;;;;;;;15.00;12.40;;;2.80;99.90;;;;;;5042137;28;20648;-84
2022/11/25 03:07:53;;;;;;;17.40;11.80;;;2.70;99.90;;;;;;5048233;28;20969;-84
2022/11/25 03:10:20;;;;;;;16.20;12.47;;;2.80;99.90;;;;;;5047403;28;20645;-85
2022/11/25 03:12:47;;;;;;;16.20;12.70;;;2.60;99.90;;;;;;5052365;28;20660;-84
2022/11/25 03:15:14;;;;;;;13.40;12.00;;;2.80;99.90;;;;;;5043111;28;20689;-85
2022/11/25 03:17:43;;;;;;;17.20;12.40;;;2.70;99.90;;;;;;5035742;28;20648;-84
2022/11/25 03:20:11;;;;;;;19.23;12.20;;;2.60;99.90;;;;;;5044664;28;20746;-85
2022/11/25 03:22:38;;;;;;;13.70;12.30;;;2.80;99.90;;;;;;5044485;28;20628;-85
2022/11/25 03:25:06;;;;;;;15.20;11.70;;;2.40;99.90;;;;;;5051096;28;20635;-85
2022/11/25 03:27:34;;;;;;;16.77;11.03;;;2.70;99.90;;;;;;5045218;28;20636;-86
2022/11/25 03:30:01;;;;;;;14.90;10.70;;;2.60;99.90;;;;;;5044011;28;20650;-84
2022/11/25 03:32:28;;;;;;;11.93;10.30;;;2.50;99.90;;;;;;5051435;28;20667;-84
2022/11/25 03:34:56;;;;;;;15.23;10.87;;;2.60;99.90;;;;;;5048310;28;20663;-84
2022/11/25 03:37:23;;;;;;;12.97;10.47;;;2.60;99.90;;;;;;5047096;28;20635;-84
2022/11/25 03:39:49;;;;;;;16.30;10.03;;;2.70;99.90;;;;;;5051069;28;20657;-84
2022/11/25 03:42:16;;;;;;;20.57;10.90;;;2.50;99.90;;;;;;5039176;28;20637;-85
2022/11/25 03:44:43;;;;;;;10.73;9.70;;;2.70;99.90;;;;;;5048082;28;21181;-84
2022/11/25 03:47:10;;;;;;;14.37;9.97;;;2.50;99.90;;;;;;5043350;28;20630;-84
2022/11/25 03:49:37;;;;;;;15.30;10.27;;;2.50;99.90;;;;;;5047833;28;20667;-84
2022/11/25 03:52:06;;;;;;;17.37;10.77;;;2.70;99.90;;;;;;5039244;28;20652;-85
2022/11/25 03:54:33;;;;;;;17.13;9.47;;;2.40;99.90;;;;;;5047243;28;20632;-84
2022/11/25 03:56:59;;;;;;;15.27;9.77;;;2.70;99.90;;;;;;5049336;28;20644;-85
2022/11/25 03:59:26;;;;;;;14.60;10.13;;;2.50;99.90;;;;;;5050393;28;20635;-84
2022/11/25 04:01:53;;;;;;;13.03;9.03;;;2.70;99.90;;;;;;5050458;28;20627;-84
2022/11/25 04:04:20;;;;;;;10.87;9.03;;;2.70;99.90;;;;;;5041302;28;20630;-84
2022/11/25 04:06:46;;;;;;;10.87;9.50;;;2.50;99.90;;;;;;5047957;28;20631;-84
2022/11/25 04:09:15;;;;;;;15.50;9.30;;;2.60;99.90;;;;;;5040781;28;20627;-85
2022/11/25 04:14:27;;;;;;;12.27;9.57;;;2.50;99.90;;;;;;5043799;28;20611;-84
2022/11/25 04:16:54;;;;;;;17.90;12.07;;;2.60;99.90;;;;;;5038892;28;20680;-84
2022/11/25 04:19:20;;;;;;;16.20;11.30;;;2.40;99.90;;;;;;5043791;28;20642;-85
2022/11/25 04:21:47;;;;;;;13.90;11.17;;;2.40;99.90;;;;;;5039512;28;20629;-84
2022/11/25 04:24:16;;;;;;;13.57;11.00;;;2.40;99.90;;;;;;5039859;28;20629;-84
2022/11/25 04:26:42;;;;;;;14.90;10.70;;;2.60;99.90;;;;;;5048899;28;20624;-84
2022/11/25 04:29:09;;;;;;;12.37;10.27;;;2.60;99.90;;;;;;5045924;28;20644;-84
2022/11/25 04:31:36;;;;;;;14.60;10.67;;;2.40;99.90;;;;;;5037988;28;20674;-84
2022/11/25 04:34:04;;;;;;;12.83;11.13;;;2.40;99.90;;;;;;5038250;28;20700;-84
2022/11/25 04:36:31;;;;;;;13.27;10.80;;;2.50;99.90;;;;;;5044700;28;20700;-84
2022/11/25 04:38:57;;;;;;;14.60;10.70;;;2.50;99.90;;;;;;5041070;28;20653;-84
2022/11/25 04:41:25;;;;;;;13.00;9.83;;;1.90;99.90;;;;;;5048143;28;20620;-84
2022/11/25 04:43:52;;;;;;;12.97;11.40;;;2.20;99.90;;;;;;5042237;28;21228;-84
2022/11/25 04:46:21;;;;;;;14.27;12.33;;;2.40;99.90;;;;;;5049530;28;20623;-84
2022/11/25 04:48:48;;;;;;;13.00;11.70;;;2.30;99.90;;;;;;5041757;28;20658;-85
2022/11/25 04:51:15;;;;;;;19.07;12.23;;;2.40;99.90;;;;;;5046275;28;20620;-84
2022/11/25 04:53:42;;;;;;;13.87;12.33;;;2.50;99.90;;;;;;5044317;28;20633;-84
2022/11/25 04:56:10;;;;;;;19.80;11.83;;;2.50;99.90;;;;;;5049301;28;20640;-84
2022/11/25 05:01:22;;;;;;;15.73;11.70;;;2.30;99.90;;;;;;5042533;28;20687;-84
2022/11/25 05:03:49;;;;;;;13.37;12.00;;;2.50;99.90;;;;;;5043001;28;20647;-84
2022/11/25 05:06:16;;;;;;;14.50;12.23;;;2.50;99.90;;;;;;5041385;28;20635;-84
2022/11/25 05:08:43;;;;;;;16.03;12.30;;;2.60;99.90;;;;;;5049856;28;21244;-84
2022/11/25 05:11:09;;;;;;;18.90;12.03;;;2.60;99.90;;;;;;5047911;28;20623;-83
2022/11/25 05:13:38;;;;;;;15.13;13.10;;;2.20;99.90;;;;;;5040253;28;20750;-83
2022/11/25 05:16:05;;;;;;;13.70;11.97;;;2.30;99.90;;;;;;5039136;28;20628;-84
2022/11/25 05:18:32;;;;;;;18.10;12.37;;;2.40;99.90;;;;;;5047663;28;21256;-83
2022/11/25 05:21:01;;;;;;;14.90;12.40;;;2.40;99.90;;;;;;5047940;28;20630;-84
2022/11/25 05:23:28;;;;;;;17.57;13.57;;;2.20;99.90;;;;;;5046245;28;20630;-84
2022/11/25 05:25:59;;;;;;;17.33;13.30;;;2.20;99.90;;;;;;5039577;28;21160;-85
2022/11/25 05:28:26;;;;;;;17.90;14.87;;;2.20;99.90;;;;;;5039457;28;20616;-84
2022/11/25 05:30:54;;;;;;;20.10;15.77;;;2.40;99.90;;;;;;5034486;28;20626;-83
2022/11/25 05:33:21;;;;;;;20.10;16.40;;;2.30;99.90;;;;;;5041160;28;20659;-84
2022/11/25 05:35:55;;;;;;;24.87;17.97;;;2.10;99.90;;;;;;5043197;28;20620;-83
2022/11/25 05:38:22;;;;;;;16.90;15.10;;;2.10;99.90;;;;;;5044799;28;20635;-83
2022/11/25 05:40:48;;;;;;;21.00;16.23;;;2.00;99.90;;;;;;5043390;28;20705;-84
2022/11/25 05:43:15;;;;;;;20.40;15.87;;;2.10;99.90;;;;;;5042807;28;20627;-84
2022/11/25 05:45:42;;;;;;;21.27;15.90;;;1.90;99.90;;;;;;5048155;28;20637;-84
2022/11/25 05:48:10;;;;;;;16.70;12.97;;;2.10;99.90;;;;;;5042376;28;20642;-84
2022/11/25 05:50:37;;;;;;;20.03;14.77;;;2.00;99.90;;;;;;5046568;28;20658;-84
2022/11/25 05:53:04;;;;;;;15.70;13.17;;;2.00;99.90;;;;;;5047232;28;20667;-83
2022/11/25 05:55:31;;;;;;;15.90;13.57;;;2.00;99.90;;;;;;5037181;28;20641;-84
2022/11/25 05:57:58;;;;;;;14.53;12.33;;;2.00;99.90;;;;;;5046504;28;20627;-84
2022/11/25 06:00:25;;;;;;;23.90;14.10;;;1.80;99.90;;;;;;5042633;28;20653;-84
2022/11/25 06:02:52;;;;;;;18.80;14.10;;;2.20;99.90;;;;;;5046476;28;21232;-83
2022/11/25 06:05:20;;;;;;;22.50;13.37;;;1.80;99.90;;;;;;5039042;28;20653;-84
2022/11/25 06:07:47;;;;;;;19.70;13.30;;;2.00;99.90;;;;;;5049016;28;20656;-84
2022/11/25 06:10:14;;;;;;;17.03;13.43;;;2.10;99.90;;;;;;5040810;28;20647;-84
2022/11/25 06:12:41;;;;;;;20.73;13.90;;;2.00;99.90;;;;;;5045669;28;21007;-83
2022/11/25 06:15:09;;;;;;;20.30;14.00;;;2.10;99.90;;;;;;5037227;28;20684;-83
2022/11/25 06:17:36;;;;;;;15.10;12.43;;;2.10;99.90;;;;;;5032189;28;20615;-84
2022/11/25 06:20:03;;;;;;;16.87;12.13;;;2.20;99.90;;;;;;5044778;28;20669;-84
2022/11/25 06:22:31;;;;;;;16.30;11.50;;;2.20;99.90;;;;;;5040323;28;20630;-84
2022/11/25 06:24:58;;;;;;;13.23;11.87;;;2.10;99.90;;;;;;5048349;28;20668;-84
2022/11/25 06:27:25;;;;;;;17.63;12.30;;;2.20;99.90;;;;;;5048287;28;20647;-84
2022/11/25 06:29:52;;;;;;;14.67;12.03;;;2.00;99.90;;;;;;5033916;28;20647;-83
2022/11/25 06:32:18;;;;;;;18.17;12.57;;;2.00;99.90;;;;;;5047582;28;21176;-83
2022/11/25 06:34:45;;;;;;;17.23;12.63;;;1.80;99.90;;;;;;5037767;28;20650;-84
2022/11/25 06:37:12;;;;;;;23.63;16.07;;;1.90;99.90;;;;;;5040125;28;20697;-83
2022/11/25 06:39:40;;;;;;;23.23;16.33;;;1.90;99.90;;;;;;5038487;28;20647;-84
2022/11/25 06:42:07;;;;;;;25.60;16.10;;;2.00;99.90;;;;;;5043338;28;20628;-84
2022/11/25 06:44:34;;;;;;;17.70;13.33;;;2.00;99.90;;;;;;5034371;28;20635;-84
2022/11/25 06:47:01;;;;;;;18.93;14.30;;;2.00;99.90;;;;;;5045443;28;21044;-84
2022/11/25 06:49:28;;;;;;;15.30;11.67;;;1.90;99.90;;;;;;5043835;28;20648;-84
2022/11/25 06:51:55;;;;;;;12.83;11.40;;;1.80;99.90;;;;;;5029447;28;20680;-85
2022/11/25 06:54:21;;;;;;;14.73;12.30;;;2.20;99.90;;;;;;5034948;28;21186;-84
2022/11/25 06:56:52;;;;;;;17.23;13.17;;;2.00;99.90;;;;;;5045865;28;21259;-84
2022/11/25 06:59:19;;;;;;;12.70;11.47;;;1.90;99.90;;;;;;5041957;28;21298;-84
2022/11/25 07:01:46;;;;;;;13.10;11.30;;;1.80;99.90;;;;;;5044232;28;20633;-84
2022/11/25 07:04:13;;;;;;;15.07;11.93;;;1.90;99.90;;;;;;5041273;28;20623;-84
2022/11/25 07:06:40;;;;;;;13.40;10.80;;;2.10;99.90;;;;;;5044477;28;20722;-85
2022/11/25 07:09:07;;;;;;;12.53;10.83;;;2.00;99.90;;;;;;5038356;28;20659;-84
2022/11/25 07:11:35;;;;;;;15.47;12.43;;;2.00;99.90;;;;;;5046564;28;20620;-85
2022/11/25 07:14:07;;;;;;;15.53;13.57;;;2.10;99.90;;;;;;5033343;28;20670;-84
2022/11/25 07:16:34;;;;;;;15.90;13.97;;;2.40;99.90;;;;;;5027842;28;21261;-85
2022/11/25 07:19:02;;;;;;;17.03;14.77;;;2.40;99.90;;;;;;5045410;28;20669;-85
2022/11/25 07:21:31;;;;;;;19.83;12.67;;;2.30;99.90;;;;;;5032028;28;20637;-83
2022/11/25 07:23:59;;;;;;;20.40;18.40;;;2.40;99.90;;;;;;5044662;28;20984;-83
2022/11/25 07:26:29;;;;;;;18.93;17.23;;;2.60;99.90;;;;;;5037346;28;20620;-86
2022/11/25 07:28:59;;;;;;;19.20;15.73;;;2.80;99.90;;;;;;5046611;28;20688;-85
2022/11/25 07:31:28;;;;;;;19.33;14.30;;;2.90;99.90;;;;;;5046031;28;20635;-86
2022/11/25 07:33:57;;;;;;;16.10;13.23;;;2.90;99.90;;;;;;5045031;28;20683;-84
2022/11/25 07:36:25;;;;;;;14.47;12.53;;;3.10;99.90;;;;;;5046448;28;20629;-85
2022/11/25 07:38:51;;;;;;;14.13;11.50;;;2.60;99.90;;;;;;5040641;28;20669;-83
2022/11/25 07:41:21;;;;;;;26.87;24.37;;;3.30;99.90;;;;;;5050406;28;20701;-84
2022/11/25 07:43:50;;;;;;;27.63;24.93;;;3.10;99.90;;;;;;5045679;28;20632;-83
2022/11/25 07:46:20;;;;;;;20.63;18.57;;;3.30;99.90;;;;;;5036501;28;20629;-84
2022/11/25 07:48:48;;;;;;;21.13;18.90;;;3.30;99.90;;;;;;5043874;28;20665;-84
2022/11/25 07:51:17;;;;;;;16.43;13.77;;;3.30;99.90;;;;;;5038602;28;20629;-85
2022/11/25 07:53:44;;;;;;;19.37;17.50;;;3.30;99.90;;;;;;5047234;28;20669;-85
2022/11/25 07:56:11;;;;;;;12.77;11.43;;;3.50;99.90;;;;;;5038899;28;20615;-85
2022/11/25 07:58:38;;;;;;;16.40;11.80;;;3.70;99.90;;;;;;5041090;28;20661;-85
2022/11/25 08:01:06;;;;;;;11.97;10.50;;;3.60;99.90;;;;;;5048554;28;20629;-85
2022/11/25 08:03:33;;;;;;;13.67;11.20;;;3.70;99.90;;;;;;5044690;28;20641;-85
2022/11/25 08:06:02;;;;;;;12.93;11.63;;;3.00;99.90;;;;;;5043818;28;21159;-85
2022/11/25 08:08:29;;;;;;;11.70;10.30;;;3.70;99.90;;;;;;5044644;28;20625;-84
2022/11/25 08:10:56;;;;;;;14.83;13.50;;;3.70;99.90;;;;;;5039836;28;20622;-84
2022/11/25 08:13:23;;;;;;;15.00;12.70;;;3.70;99.90;;;;;;5040518;28;20690;-83
2022/11/25 08:15:50;;;;;;;13.47;10.83;;;3.70;99.90;;;;;;5047375;28;20637;-84
2022/11/25 08:18:17;;;;;;;11.97;10.90;;;3.90;99.90;;;;;;5042088;28;20627;-84
2022/11/25 08:20:44;;;;;;;14.70;11.10;;;3.90;99.90;;;;;;5044784;28;20622;-84
2022/11/25 08:23:12;;;;;;;17.53;12.60;;;3.90;99.90;;;;;;5042006;28;20622;-84
2022/11/25 08:25:40;;;;;;;14.13;12.73;;;3.70;99.90;;;;;;5049265;28;20638;-84
2022/11/25 08:28:07;;;;;;;16.33;14.10;;;3.80;99.90;;;;;;5045742;28;20638;-84
2022/11/25 08:30:34;;;;;;;19.60;14.50;;;3.40;99.90;;;;;;5045227;28;20648;-84
2022/11/25 08:33:03;;;;;;;15.10;13.50;;;4.00;99.90;;;;;;5049195;28;20666;-84
2022/11/25 08:35:31;;;;;;;16.80;14.00;;;4.00;99.90;;;;;;5039065;28;20629;-84
2022/11/25 08:37:58;;;;;;;13.53;12.33;;;4.00;99.90;;;;;;5048601;28;20645;-84
2022/11/25 08:40:26;;;;;;;14.50;13.00;;;4.20;99.90;;;;;;5049063;28;20649;-83
2022/11/25 08:42:53;;;;;;;16.50;13.50;;;4.30;99.90;;;;;;5033430;28;21211;-84
2022/11/25 08:45:20;;;;;;;13.47;12.17;;;3.80;99.90;;;;;;5045952;28;20632;-83
2022/11/25 08:47:47;;;;;;;14.03;11.60;;;4.10;99.90;;;;;;5041377;28;20780;-84
2022/11/25 08:50:15;;;;;;;12.67;11.37;;;4.30;99.90;;;;;;5040316;28;20639;-85
2022/11/25 08:52:42;;;;;;;16.20;12.17;;;4.50;99.90;;;;;;5039344;28;21570;-86
2022/11/25 08:55:10;;;;;;;11.63;10.53;;;4.30;99.90;;;;;;5046845;28;21267;-84
2022/11/25 08:57:38;;;;;;;15.00;12.30;;;4.70;99.90;;;;;;5042057;28;20630;-87
2022/11/25 09:00:07;;;;;;;14.63;11.27;;;4.50;99.90;;;;;;5039413;28;20672;-86
2022/11/25 09:02:34;;;;;;;14.37;12.53;;;5.20;99.90;;;;;;5046431;28;20621;-86
2022/11/25 09:05:01;;;;;;;14.80;13.17;;;4.90;99.90;;;;;;5038444;28;20632;-87
2022/11/25 09:07:28;;;;;;;13.30;12.00;;;4.60;99.90;;;;;;5040737;28;20625;-86
2022/11/25 09:09:55;;;;;;;17.70;15.93;;;5.40;99.90;;;;;;5043480;28;21018;-86
2022/11/25 09:12:21;;;;;;;16.10;13.70;;;5.40;99.90;;;;;;5039244;28;20640;-86
2022/11/25 09:14:50;;;;;;;11.77;10.67;;;5.60;99.90;;;;;;5044501;28;20638;-86
2022/11/25 09:17:17;;;;;;;11.13;9.97;;;5.40;99.90;;;;;;5040812;28;20630;-86
2022/11/25 09:19:45;;;;;;;12.23;11.00;;;6.00;99.90;;;;;;5047682;28;20761;-86
2022/11/25 09:22:12;;;;;;;12.73;11.40;;;5.80;99.90;;;;;;5033862;28;20646;-86
2022/11/25 09:24:40;;;;;;;10.60;9.63;;;6.50;99.90;;;;;;5046596;28;20625;-86
2022/11/25 09:27:07;;;;;;;10.67;9.57;;;6.90;99.90;;;;;;5042013;28;20637;-86
2022/11/25 09:29:34;;;;;;;9.60;8.57;;;7.00;99.90;;;;;;5049273;28;20972;-86
2022/11/25 09:32:02;;;;;;;11.73;10.00;;;8.00;99.90;;;;;;5046653;28;20657;-87
